Time;durP1;ratioP1;P1;durP2;ratioP2;P2;SDS_P1;SDS_P2;PMS_P1;PMS_P2;Temp;Humidity;BMP_temperature;BMP_pressure;BME280_temperature;BME280_humidity;BME280_pressure;Samples;Min_cycle;Max_cycle;Signal;HPM_P1;HPM_P2
2022/11/10 00:01:48;;;;;;;;;;;;;;;;;;5093333;28;19908;-67
2022/11/10 00:04:14;;;;;;;;;;;;;;;;;;5093763;28;19914;-68
2022/11/10 00:06:40;;;;;;;;;;;;;;;;;;5093763;28;19912;-68
2022/11/10 00:09:06;;;;;;;;;;;;;;;;;;5093405;28;19908;-67
2022/11/10 00:11:31;;;;;;;;;;;;;;;;;;5093751;28;19915;-67
2022/11/10 00:17:00;;;;;;;;;;;;;;;;;;5095534;28;20330;-68
2022/11/10 00:19:26;;;;;;;;;;;;;;;;;;5097760;28;19934;-68
2022/11/10 00:21:52;;;;;;;;;;;;;;;;;;5079536;28;19908;-67
2022/11/10 00:24:18;;;;;;;;;;;;;;;;;;5097248;28;19987;-68
2022/11/10 00:26:44;;;;;;;;;;;;;;;;;;5097553;28;20372;-67
2022/11/10 00:29:10;;;;;;;;;;;;;;;;;;5097627;28;19952;-68
2022/11/10 00:31:36;;;;;;;;;;;;;;;;;;5078857;28;19953;-68
2022/11/10 00:34:02;;;;;;;;;;;;;;;;;;5097339;28;19908;-67
2022/11/10 00:36:28;;;;;;;;;;;;;;;;;;5078967;28;19915;-67
2022/11/10 00:38:54;;;;;;;;;;;;;;;;;;5097411;28;20391;-67
2022/11/10 00:41:20;;;;;;;;;;;;;;;;;;5079095;28;19952;-68
2022/11/10 00:43:46;;;;;;;;;;;;;;;;;;5096814;28;19912;-67
2022/11/10 00:46:12;;;;;;;;;;;;;;;;;;5097249;28;20375;-67
2022/11/10 00:48:38;;;;;;;;;;;;;;;;;;5097221;28;19952;-67
2022/11/10 00:51:04;;;;;;;;;;;;;;;;;;5095595;28;20261;-69
2022/11/10 00:53:30;;;;;;;;;;;;;;;;;;5096785;28;20014;-67
2022/11/10 00:55:56;;;;;;;;;;;;;;;;;;5097054;28;19916;-67
2022/11/10 00:58:22;;;;;;;;;;;;;;;;;;5096594;28;19908;-67
2022/11/10 01:00:48;;;;;;;;;;;;;;;;;;5096967;28;19955;-68
2022/11/10 01:03:14;;;;;;;;;;;;;;;;;;5096975;28;19961;-68
2022/11/10 01:05:40;;;;;;;;;;;;;;;;;;5096425;28;19920;-68
2022/11/10 01:08:06;;;;;;;;;;;;;;;;;;5096781;28;19912;-68
2022/11/10 01:10:32;;;;;;;;;;;;;;;;;;5096779;28;19961;-67
2022/11/10 01:12:57;;;;;;;;;;;;;;;;;;5096387;28;19908;-67
2022/11/10 01:15:23;;;;;;;;;;;;;;;;;;5096618;28;19923;-68
2022/11/10 01:17:49;;;;;;;;;;;;;;;;;;5096872;28;20420;-67
2022/11/10 01:20:15;;;;;;;;;;;;;;;;;;5096247;28;19999;-68
2022/11/10 01:22:41;;;;;;;;;;;;;;;;;;5078409;28;19916;-67
2022/11/10 01:25:07;;;;;;;;;;;;;;;;;;5078333;28;19912;-68
2022/11/10 01:27:33;;;;;;;;;;;;;;;;;;5095593;28;19912;-67
2022/11/10 01:29:59;;;;;;;;;;;;;;;;;;5096496;28;20004;-68
2022/11/10 01:32:25;;;;;;;;;;;;;;;;;;5078167;28;19995;-68
2022/11/10 01:34:51;;;;;;;;;;;;;;;;;;5095878;28;19916;-67
2022/11/10 01:37:17;;;;;;;;;;;;;;;;;;5096284;28;19908;-67
2022/11/10 01:39:43;;;;;;;;;;;;;;;;;;5095878;28;19909;-67
2022/11/10 01:42:09;;;;;;;;;;;;;;;;;;5096234;28;19912;-68
2022/11/10 01:44:35;;;;;;;;;;;;;;;;;;5078151;28;19962;-67
2022/11/10 01:47:01;;;;;;;;;;;;;;;;;;5095848;28;19908;-68
2022/11/10 01:49:27;;;;;;;;;;;;;;;;;;5077933;28;20412;-67
2022/11/10 01:51:53;;;;;;;;;;;;;;;;;;5096338;28;20318;-67
2022/11/10 01:54:19;;;;;;;;;;;;;;;;;;5077123;28;19920;-67
2022/11/10 01:56:45;;;;;;;;;;;;;;;;;;5096006;28;19915;-67
2022/11/10 01:59:11;;;;;;;;;;;;;;;;;;5095798;28;19909;-67
2022/11/10 02:01:37;;;;;;;;;;;;;;;;;;5095430;28;20353;-67
2022/11/10 02:04:03;;;;;;;;;;;;;;;;;;5095973;28;19908;-67
2022/11/10 02:06:29;;;;;;;;;;;;;;;;;;5095990;28;19912;-67
2022/11/10 02:08:55;;;;;;;;;;;;;;;;;;5095532;28;20360;-68
2022/11/10 02:11:21;;;;;;;;;;;;;;;;;;5095925;28;20348;-67
2022/11/10 02:13:47;;;;;;;;;;;;;;;;;;5095640;28;20364;-68
2022/11/10 02:16:13;;;;;;;;;;;;;;;;;;5095058;28;19917;-67
2022/11/10 02:18:39;;;;;;;;;;;;;;;;;;5095479;28;19912;-67
2022/11/10 02:21:05;;;;;;;;;;;;;;;;;;5095404;28;20383;-67
2022/11/10 02:23:34;;;;;;;;;;;;;;;;;;5095008;28;20364;-67
2022/11/10 02:26:00;;;;;;;;;;;;;;;;;;5095322;28;19912;-67
2022/11/10 02:28:26;;;;;;;;;;;;;;;;;;5095316;28;19908;-68
2022/11/10 02:30:52;;;;;;;;;;;;;;;;;;5094733;28;19991;-68
2022/11/10 02:33:17;;;;;;;;;;;;;;;;;;5095312;28;19961;-68
2022/11/10 02:35:43;;;;;;;;;;;;;;;;;;5095116;28;20376;-68
2022/11/10 02:38:09;;;;;;;;;;;;;;;;;;5094101;28;20346;-67
2022/11/10 02:40:35;;;;;;;;;;;;;;;;;;5094791;28;19931;-67
2022/11/10 02:43:01;;;;;;;;;;;;;;;;;;5076267;28;20007;-68
2022/11/10 02:45:27;;;;;;;;;;;;;;;;;;5094901;28;19912;-68
2022/11/10 02:47:53;;;;;;;;;;;;;;;;;;5095219;28;19916;-68
2022/11/10 02:50:19;;;;;;;;;;;;;;;;;;5094478;28;19919;-67
2022/11/10 02:52:45;;;;;;;;;;;;;;;;;;5076513;28;20379;-68
2022/11/10 02:55:11;;;;;;;;;;;;;;;;;;5094504;28;20273;-68
2022/11/10 02:57:37;;;;;;;;;;;;;;;;;;5076378;28;20012;-67
2022/11/10 03:00:03;;;;;;;;;;;;;;;;;;5094809;28;20416;-68
2022/11/10 03:02:29;;;;;;;;;;;;;;;;;;5094654;28;19912;-67
2022/11/10 03:04:55;;;;;;;;;;;;;;;;;;5094075;28;19954;-68
2022/11/10 03:07:21;;;;;;;;;;;;;;;;;;5094584;28;19915;-68
2022/11/10 03:09:47;;;;;;;;;;;;;;;;;;5094483;28;20444;-68
2022/11/10 03:12:13;;;;;;;;;;;;;;;;;;5094159;28;20298;-67
2022/11/10 03:14:38;;;;;;;;;;;;;;;;;;5094414;28;20310;-67
2022/11/10 03:17:04;;;;;;;;;;;;;;;;;;5094502;28;19908;-67
2022/11/10 03:19:30;;;;;;;;;;;;;;;;;;5094020;28;20390;-67
2022/11/10 03:21:56;;;;;;;;;;;;;;;;;;5094401;28;19946;-67
2022/11/10 03:24:22;;;;;;;;;;;;;;;;;;5094333;28;19934;-68
2022/11/10 03:26:48;;;;;;;;;;;;;;;;;;5075674;28;19908;-67
2022/11/10 03:29:14;;;;;;;;;;;;;;;;;;5094269;28;19951;-68
2022/11/10 03:31:40;;;;;;;;;;;;;;;;;;5075996;28;20429;-68
2022/11/10 03:34:06;;;;;;;;;;;;;;;;;;5093762;28;19908;-68
2022/11/10 03:36:32;;;;;;;;;;;;;;;;;;5094101;28;20372;-67
2022/11/10 03:38:58;;;;;;;;;;;;;;;;;;5075822;28;19915;-67
2022/11/10 03:41:24;;;;;;;;;;;;;;;;;;5075491;28;19908;-67
2022/11/10 03:43:50;;;;;;;;;;;;;;;;;;5094038;28;19912;-67
2022/11/10 03:46:17;;;;;;;;;;;;;;;;;;5093608;28;19912;-68
2022/11/10 03:48:43;;;;;;;;;;;;;;;;;;5094047;28;20292;-68
2022/11/10 03:51:08;;;;;;;;;;;;;;;;;;5093932;28;19909;-68
2022/11/10 03:53:34;;;;;;;;;;;;;;;;;;5093163;28;19968;-68
2022/11/10 03:56:00;;;;;;;;;;;;;;;;;;5094020;28;20380;-67
2022/11/10 03:58:26;;;;;;;;;;;;;;;;;;5093775;28;19964;-66
2022/11/10 04:00:53;;;;;;;;;;;;;;;;;;5093432;28;19915;-68
2022/11/10 04:03:19;;;;;;;;;;;;;;;;;;5075700;28;19915;-68
2022/11/10 04:15:40;;;;;;;;;;;;;;;;;;5093785;28;19915;-68
2022/11/10 04:16:44;;;;;;;;;;;;;;;;;;5093569;28;20391;-68
2022/11/10 04:19:10;;;;;;;;;;;;;;;;;;5093711;28;19909;-68
2022/11/10 04:21:36;;;;;;;;;;;;;;;;;;5093264;28;19910;-67
2022/11/10 04:24:02;;;;;;;;;;;;;;;;;;5093607;28;19930;-68
2022/11/10 04:26:28;;;;;;;;;;;;;;;;;;5075495;28;20268;-68
2022/11/10 04:28:54;;;;;;;;;;;;;;;;;;5075037;28;19908;-67
2022/11/10 04:31:20;;;;;;;;;;;;;;;;;;5093552;28;20049;-68
2022/11/10 04:33:46;;;;;;;;;;;;;;;;;;5075468;28;19912;-68
2022/11/10 04:36:12;;;;;;;;;;;;;;;;;;5093029;28;20382;-68
2022/11/10 04:38:38;;;;;;;;;;;;;;;;;;5093495;28;19994;-68
2022/11/10 04:41:04;;;;;;;;;;;;;;;;;;5093509;28;19915;-68
2022/11/10 04:43:30;;;;;;;;;;;;;;;;;;5093187;28;19912;-68
2022/11/10 04:45:56;;;;;;;;;;;;;;;;;;5093372;28;20361;-68
2022/11/10 04:48:22;;;;;;;;;;;;;;;;;;5093442;28;20000;-68
2022/11/10 04:50:48;;;;;;;;;;;;;;;;;;5093006;28;20360;-67
2022/11/10 04:53:14;;;;;;;;;;;;;;;;;;5093251;28;19908;-68
2022/11/10 04:55:40;;;;;;;;;;;;;;;;;;5074972;28;20007;-67
2022/11/10 04:58:06;;;;;;;;;;;;;;;;;;5092888;28;20368;-68
2022/11/10 05:00:32;;;;;;;;;;;;;;;;;;5093351;28;20356;-68
2022/11/10 05:02:58;;;;;;;;;;;;;;;;;;5095733;28;20007;-68
2022/11/10 05:05:23;;;;;;;;;;;;;;;;;;5096574;28;19908;-68
2022/11/10 05:13:25;;;;;;;;;;;;;;;;;;5095508;28;20505;-68
2022/11/10 05:15:52;;;;;;;;;;;;;;;;;;5096675;28;19916;-67
2022/11/10 05:18:18;;;;;;;;;;;;;;;;;;5096472;28;19977;-67
2022/11/10 05:20:44;;;;;;;;;;;;;;;;;;5096696;28;19908;-67
2022/11/10 05:25:54;;;;;;;;;;;;;;;;;;5096097;28;20288;-67
2022/11/10 05:28:20;;;;;;;;;;;;;;;;;;5096470;28;20318;-68
2022/11/10 05:30:46;;;;;;;;;;;;;;;;;;5096683;28;19957;-68
2022/11/10 05:33:12;;;;;;;;;;;;;;;;;;5095940;28;19943;-67
2022/11/10 05:35:38;;;;;;;;;;;;;;;;;;5096198;28;19915;-67
2022/11/10 05:38:04;;;;;;;;;;;;;;;;;;5095095;28;20356;-68
2022/11/10 05:40:30;;;;;;;;;;;;;;;;;;5093597;28;19908;-67
2022/11/10 05:42:56;;;;;;;;;;;;;;;;;;5096197;28;19908;-67
2022/11/10 05:45:22;;;;;;;;;;;;;;;;;;5096059;28;19991;-68
2022/11/10 05:47:48;;;;;;;;;;;;;;;;;;5095716;28;19912;-67
2022/11/10 05:50:14;;;;;;;;;;;;;;;;;;5095478;28;20330;-67
2022/11/10 05:52:40;;;;;;;;;;;;;;;;;;5093774;28;19915;-68
2022/11/10 05:55:06;;;;;;;;;;;;;;;;;;5093338;28;19920;-68
2022/11/10 05:57:32;;;;;;;;;;;;;;;;;;5094401;28;19947;-68
2022/11/10 05:59:58;;;;;;;;;;;;;;;;;;5094606;28;19930;-66
2022/11/10 06:02:24;;;;;;;;;;;;;;;;;;5075885;28;19915;-68
2022/11/10 06:04:49;;;;;;;;;;;;;;;;;;5094422;28;19912;-68
2022/11/10 06:07:15;;;;;;;;;;;;;;;;;;5095207;28;20288;-68
2022/11/10 06:09:41;;;;;;;;;;;;;;;;;;5090703;28;20356;-68
2022/11/10 06:12:07;;;;;;;;;;;;;;;;;;5094805;28;20344;-67
2022/11/10 06:14:33;;;;;;;;;;;;;;;;;;5076343;28;20280;-64
2022/11/10 06:16:59;;;;;;;;;;;;;;;;;;5094815;28;19916;-67
2022/11/10 06:19:25;;;;;;;;;;;;;;;;;;5092520;28;19915;-68
2022/11/10 06:21:51;;;;;;;;;;;;;;;;;;5074130;28;20002;-67
2022/11/10 06:24:17;;;;;;;;;;;;;;;;;;5093007;28;19916;-67
2022/11/10 06:26:43;;;;;;;;;;;;;;;;;;5074386;28;19946;-68
2022/11/10 06:29:09;;;;;;;;;;;;;;;;;;5073542;28;19918;-68
2022/11/10 06:31:35;;;;;;;;;;;;;;;;;;5092776;28;19908;-68
2022/11/10 06:34:01;;;;;;;;;;;;;;;;;;5092735;28;19908;-67
2022/11/10 06:36:27;;;;;;;;;;;;;;;;;;5092369;28;20284;-67
2022/11/10 06:38:53;;;;;;;;;;;;;;;;;;5091546;28;19961;-67
2022/11/10 06:41:19;;;;;;;;;;;;;;;;;;5092379;28;19908;-68
2022/11/10 06:43:44;;;;;;;;;;;;;;;;;;5082588;28;20015;-68
2022/11/10 06:46:10;;;;;;;;;;;;;;;;;;5092561;28;19908;-69
2022/11/10 06:48:37;;;;;;;;;;;;;;;;;;5080457;28;19965;-68
2022/11/10 06:51:03;;;;;;;;;;;;;;;;;;5070741;28;20319;-68
2022/11/10 06:53:29;;;;;;;;;;;;;;;;;;5072521;28;19916;-69
2022/11/10 06:55:54;;;;;;;;;;;;;;;;;;5089621;28;19971;-69
2022/11/10 06:58:20;;;;;;;;;;;;;;;;;;5090595;28;20348;-68
2022/11/10 07:00:46;;;;;;;;;;;;;;;;;;5091890;28;20341;-67
2022/11/10 07:03:12;;;;;;;;;;;;;;;;;;5087655;28;20329;-69
2022/11/10 07:05:38;;;;;;;;;;;;;;;;;;5077520;28;19919;-68
2022/11/10 07:08:04;;;;;;;;;;;;;;;;;;5088901;28;19908;-68
2022/11/10 07:10:30;;;;;;;;;;;;;;;;;;5093125;28;19908;-69
2022/11/10 07:12:56;;;;;;;;;;;;;;;;;;5093083;28;19915;-68
2022/11/10 07:15:22;;;;;;;;;;;;;;;;;;5074335;28;20296;-66
2022/11/10 07:17:48;;;;;;;;;;;;;;;;;;5074393;28;19912;-68
2022/11/10 07:20:14;;;;;;;;;;;;;;;;;;5093603;28;19908;-70
2022/11/10 07:22:40;;;;;;;;;;;;;;;;;;5093305;28;19912;-67
2022/11/10 07:25:06;;;;;;;;;;;;;;;;;;5092545;28;19930;-69
2022/11/10 07:27:32;;;;;;;;;;;;;;;;;;5092421;28;19908;-68
2022/11/10 07:29:58;;;;;;;;;;;;;;;;;;5092821;28;19953;-66
2022/11/10 07:32:24;;;;;;;;;;;;;;;;;;5093188;28;19908;-67
2022/11/10 07:34:50;;;;;;;;;;;;;;;;;;5075496;28;19962;-68
2022/11/10 07:37:16;;;;;;;;;;;;;;;;;;5092577;28;19908;-66
2022/11/10 07:39:42;;;;;;;;;;;;;;;;;;5090779;28;19908;-66
2022/11/10 07:42:08;;;;;;;;;;;;;;;;;;5092436;28;19908;-66
2022/11/10 07:44:34;;;;;;;;;;;;;;;;;;5084307;28;19935;-66
2022/11/10 07:46:59;;;;;;;;;;;;;;;;;;5071207;28;19912;-67
2022/11/10 07:49:25;;;;;;;;;;;;;;;;;;5093336;28;19915;-68
2022/11/10 07:51:51;;;;;;;;;;;;;;;;;;5093111;28;19908;-67
2022/11/10 07:54:17;;;;;;;;;;;;;;;;;;5089016;28;19966;-67
2022/11/10 07:56:44;;;;;;;;;;;;;;;;;;5092494;28;19916;-67
2022/11/10 07:59:10;;;;;;;;;;;;;;;;;;5091280;28;19918;-66
2022/11/10 08:01:36;;;;;;;;;;;;;;;;;;5091309;28;19908;-67
2022/11/10 08:04:01;;;;;;;;;;;;;;;;;;5074044;28;19908;-67
2022/11/10 08:06:27;;;;;;;;;;;;;;;;;;5074589;28;19961;-67
2022/11/10 08:08:53;;;;;;;;;;;;;;;;;;5092184;28;20266;-65
2022/11/10 08:11:19;;;;;;;;;;;;;;;;;;5091155;28;19981;-69
2022/11/10 08:13:45;;;;;;;;;;;;;;;;;;5089437;28;19966;-67
2022/11/10 08:16:11;;;;;;;;;;;;;;;;;;5090791;28;19920;-67
2022/11/10 08:18:37;;;;;;;;;;;;;;;;;;5089456;28;19933;-66
2022/11/10 08:21:03;;;;;;;;;;;;;;;;;;5089497;28;19947;-67
2022/11/10 08:23:29;;;;;;;;;;;;;;;;;;5080786;28;19920;-67
2022/11/10 08:25:56;;;;;;;;;;;;;;;;;;5089321;28;19908;-70
2022/11/10 08:28:22;;;;;;;;;;;;;;;;;;5090099;28;20260;-67
2022/11/10 08:30:48;;;;;;;;;;;;;;;;;;5089479;28;19908;-66
2022/11/10 08:33:14;;;;;;;;;;;;;;;;;;5083221;28;20257;-67
2022/11/10 08:35:40;;;;;;;;;;;;;;;;;;5075005;28;19928;-66
2022/11/10 08:38:06;;;;;;;;;;;;;;;;;;5057651;28;19916;-66
2022/11/10 08:40:32;;;;;;;;;;;;;;;;;;5088078;28;19912;-66
2022/11/10 08:42:58;;;;;;;;;;;;;;;;;;5091301;28;19908;-67
2022/11/10 08:45:24;;;;;;;;;;;;;;;;;;5094440;28;19908;-66
2022/11/10 08:47:50;;;;;;;;;;;;;;;;;;5095169;28;19916;-67
2022/11/10 08:50:16;;;;;;;;;;;;;;;;;;5095095;28;19916;-67
2022/11/10 08:52:42;;;;;;;;;;;;;;;;;;5091017;28;19916;-66
2022/11/10 08:55:08;;;;;;;;;;;;;;;;;;5091671;28;19926;-66
2022/11/10 08:57:34;;;;;;;;;;;;;;;;;;5092219;28;19948;-66
2022/11/10 09:00:00;;;;;;;;;;;;;;;;;;5072674;28;19946;-66
2022/11/10 09:02:26;;;;;;;;;;;;;;;;;;5093555;28;19908;-66
2022/11/10 09:04:52;;;;;;;;;;;;;;;;;;5085921;28;19935;-65
2022/11/10 09:07:18;;;;;;;;;;;;;;;;;;5085768;28;20001;-65
2022/11/10 09:09:44;;;;;;;;;;;;;;;;;;5072542;28;19908;-65
2022/11/10 09:12:10;;;;;;;;;;;;;;;;;;5076923;28;19920;-66
2022/11/10 09:14:36;;;;;;;;;;;;;;;;;;5094485;28;19943;-65
2022/11/10 09:17:02;;;;;;;;;;;;;;;;;;5076805;28;19912;-65
2022/11/10 09:19:28;;;;;;;;;;;;;;;;;;5094626;28;19915;-65
2022/11/10 09:21:54;;;;;;;;;;;;;;;;;;5092594;28;20557;-66
2022/11/10 09:24:20;;;;;;;;;;;;;;;;;;5094412;28;20238;-66
2022/11/10 09:26:46;;;;;;;;;;;;;;;;;;5095618;28;19958;-65
2022/11/10 09:29:12;;;;;;;;;;;;;;;;;;5095091;28;20005;-66
2022/11/10 09:31:38;;;;;;;;;;;;;;;;;;5094449;28;20005;-65
2022/11/10 09:34:04;;;;;;;;;;;;;;;;;;5095440;28;19912;-66
2022/11/10 09:36:31;;;;;;;;;;;;;;;;;;5086366;28;19920;-66
2022/11/10 09:38:57;;;;;;;;;;;;;;;;;;5093356;28;19934;-66
2022/11/10 09:41:23;;;;;;;;;;;;;;;;;;5076010;28;19912;-66
2022/11/10 09:43:49;;;;;;;;;;;;;;;;;;5092873;28;20147;-65
2022/11/10 09:46:15;;;;;;;;;;;;;;;;;;5111148;28;19912;-67
2022/11/10 09:48:41;;;;;;;;;;;;;;;;;;5105196;28;19963;-66
2022/11/10 09:51:07;;;;;;;;;;;;;;;;;;5092133;28;19961;-67
2022/11/10 09:53:33;;;;;;;;;;;;;;;;;;5096859;28;19912;-67
2022/11/10 09:56:03;;;;;;;;;;;;;;;;;;5097910;28;19923;-67
2022/11/10 09:58:29;;;;;;;;;;;;;;;;;;5113168;28;20003;-68
2022/11/10 10:00:56;;;;;;;;;;;;;;;;;;5093865;28;19990;-67
2022/11/10 10:03:23;;;;;;;;;;;;;;;;;;5092852;28;19961;-66
2022/11/10 10:05:50;;;;;;;;;;;;;;;;;;5092935;28;19912;-67
2022/11/10 10:08:16;;;;;;;;;;;;;;;;;;5091915;28;20429;-67
2022/11/10 10:10:43;;;;;;;;;;;;;;;;;;5092931;28;19908;-67
2022/11/10 10:13:09;;;;;;;;;;;;;;;;;;5074502;28;19994;-68
2022/11/10 10:15:35;;;;;;;;;;;;;;;;;;5092933;28;20054;-66
2022/11/10 10:18:01;;;;;;;;;;;;;;;;;;5076212;28;19908;-66
2022/11/10 10:20:27;;;;;;;;;;;;;;;;;;5094081;28;19908;-67
2022/11/10 10:22:53;;;;;;;;;;;;;;;;;;5094863;28;19940;-67
2022/11/10 10:25:19;;;;;;;;;;;;;;;;;;5076100;28;19908;-68
2022/11/10 10:28:24;;;;;;;;;;;;;;;;;;5168074;27;20001;-65
2022/11/10 10:30:50;;;;;;;;;;;;;;;;;;5151587;27;19943;-65
2022/11/10 10:33:16;;;;;;;;;;;;;;;;;;5121553;28;19907;-66
2022/11/10 10:35:42;;;;;;;;;;;;;;;;;;5129725;28;19908;-65
2022/11/10 10:38:08;;;;;;;;;;;;;;;;;;5111514;28;20265;-66
2022/11/10 10:40:34;;;;;;;;;;;;;;;;;;5130122;28;19912;-65
2022/11/10 10:43:00;;;;;;;;;;;;;;;;;;5131837;27;19919;-66
2022/11/10 10:45:27;;;;;;;;;;;;;;;;;;5151288;27;19915;-66
2022/11/10 10:47:53;;;;;;;;;;;;;;;;;;5150891;27;19916;-67
2022/11/10 10:50:19;;;;;;;;;;;;;;;;;;5151058;27;19930;-66
2022/11/10 10:52:46;;;;;;;;;;;;;;;;;;5132782;27;19918;-66
2022/11/10 10:55:12;;;;;;;;;;;;;;;;;;5149791;27;19977;-67
2022/11/10 10:57:38;;;;;;;;;;;;;;;;;;5131180;27;19907;-67
2022/11/10 11:00:04;;;;;;;;;;;;;;;;;;5150402;27;20398;-66
2022/11/10 11:02:30;;;;;;;;;;;;;;;;;;5150044;27;20303;-67
2022/11/10 11:04:55;;;;;;;;;;;;;;;;;;5132015;27;19908;-67
2022/11/10 11:07:21;;;;;;;;;;;;;;;;;;5150019;27;20337;-66
2022/11/10 11:10:23;;;;;;;;;;;;;;;;;;5109795;27;19919;-66
2022/11/10 11:12:49;;;;;;;;;;;;;;;;;;5105836;28;19915;-65
2022/11/10 11:15:15;;;;;;;;;;;;;;;;;;5106848;28;19961;-68
2022/11/10 11:17:41;;;;;;;;;;;;;;;;;;5106266;28;19912;-65
2022/11/10 11:22:24;;;;;;;;;;;;;;;;;;5149957;27;19912;-65
2022/11/10 11:24:50;;;;;;;;;;;;;;;;;;5149504;27;19999;-67
2022/11/10 11:27:16;;;;;;;;;;;;;;;;;;5149345;27;19907;-66
2022/11/10 11:29:42;;;;;;;;;;;;;;;;;;5150141;27;20428;-66
2022/11/10 11:32:08;;;;;;;;;;;;;;;;;;5150887;27;20287;-66
2022/11/10 11:34:34;;;;;;;;;;;;;;;;;;5137498;27;19911;-66
2022/11/10 11:37:00;;;;;;;;;;;;;;;;;;5110815;28;19911;-65
2022/11/10 11:39:26;;;;;;;;;;;;;;;;;;5130354;28;19912;-67
2022/11/10 11:42:51;;;;;;;;;;;;;;;;;;5088264;27;19917;-66
2022/11/10 11:45:17;;;;;;;;;;;;;;;;;;5086662;28;19912;-66
2022/11/10 11:47:43;;;;;;;;;;;;;;;;;;5087086;28;19912;-66
2022/11/10 11:50:09;;;;;;;;;;;;;;;;;;5088449;28;19919;-70
2022/11/10 11:52:36;;;;;;;;;;;;;;;;;;5087915;28;19909;-65
2022/11/10 11:55:03;;;;;;;;;;;;;;;;;;5088282;28;20257;-66
2022/11/10 11:57:29;;;;;;;;;;;;;;;;;;5090079;28;19912;-67
2022/11/10 11:59:55;;;;;;;;;;;;;;;;;;5088703;28;19961;-66
2022/11/10 12:02:21;;;;;;;;;;;;;;;;;;5089734;28;19920;-66
2022/11/10 12:04:47;;;;;;;;;;;;;;;;;;5086754;28;19916;-67
2022/11/10 12:09:16;;;;;;;;;;;;;;;;;;5150774;27;20375;-65
2022/11/10 12:11:42;;;;;;;;;;;;;;;;;;5151822;27;19911;-65
2022/11/10 12:14:08;;;;;;;;;;;;;;;;;;5151375;27;20232;-65
2022/11/10 12:16:34;;;;;;;;;;;;;;;;;;5133667;27;19966;-66
2022/11/10 12:18:59;;;;;;;;;;;;;;;;;;5132987;27;19907;-68
2022/11/10 12:21:26;;;;;;;;;;;;;;;;;;5151450;27;19911;-67
2022/11/10 12:23:52;;;;;;;;;;;;;;;;;;5151654;27;19912;-66
2022/11/10 12:26:18;;;;;;;;;;;;;;;;;;5151961;27;19964;-66
2022/11/10 12:28:44;;;;;;;;;;;;;;;;;;5151614;27;19919;-67
2022/11/10 12:31:10;;;;;;;;;;;;;;;;;;5132785;27;20386;-66
2022/11/10 12:35:53;;;;;;;;;;;;;;;;;;5111067;27;19924;-65
2022/11/10 12:38:19;;;;;;;;;;;;;;;;;;5111359;28;19955;-64
2022/11/10 12:40:46;;;;;;;;;;;;;;;;;;5109736;28;20467;-66
2022/11/10 12:43:12;;;;;;;;;;;;;;;;;;5109306;28;20006;-66
2022/11/10 12:45:38;;;;;;;;;;;;;;;;;;5110081;28;19908;-66
2022/11/10 12:49:23;;;;;;;;;;;;;;;;;;5108678;27;19916;-65
2022/11/10 12:51:49;;;;;;;;;;;;;;;;;;5107367;28;19926;-66
2022/11/10 12:54:15;;;;;;;;;;;;;;;;;;5109935;28;19912;-67
2022/11/10 12:56:41;;;;;;;;;;;;;;;;;;5110672;28;19908;-65
2022/11/10 12:59:07;;;;;;;;;;;;;;;;;;5110074;28;19912;-65
2022/11/10 13:01:33;;;;;;;;;;;;;;;;;;5106317;28;19915;-65
2022/11/10 13:04:32;;;;;;;;;;;;;;;;;;5089886;28;19916;-65
2022/11/10 13:06:58;;;;;;;;;;;;;;;;;;5089224;28;20448;-66
2022/11/10 13:13:36;;;;;;;;;;;;;;;;;;5094322;27;20256;-66
2022/11/10 13:18:26;;;;;;;;;;;;;;;;;;5098224;27;19912;-68
2022/11/10 13:20:52;;;;;;;;;;;;;;;;;;5110832;28;19995;-65
2022/11/10 13:23:37;;;;;;;;;;;;;;;;;;5110834;27;20272;-66
2022/11/10 13:26:04;;;;;;;;;;;;;;;;;;5110965;28;19961;-64
2022/11/10 13:28:30;;;;;;;;;;;;;;;;;;5109848;28;19908;-65
2022/11/10 13:30:56;;;;;;;;;;;;;;;;;;5110840;28;19953;-66
2022/11/10 13:33:48;;;;;;;;;;;;;;;;;;5090584;27;19916;-67
2022/11/10 13:36:14;;;;;;;;;;;;;;;;;;5090803;28;20434;-67
2022/11/10 13:40:04;;;;;;;;;;;;;;;;;;5110908;27;19920;-66
2022/11/10 13:42:29;;;;;;;;;;;;;;;;;;5110241;28;20206;-66
2022/11/10 13:44:55;;;;;;;;;;;;;;;;;;5109816;28;19966;-67
2022/11/10 13:47:33;;;;;;;;;;;;;;;;;;5108856;28;19912;-66
2022/11/10 13:49:59;;;;;;;;;;;;;;;;;;5109892;28;19969;-66
2022/11/10 13:52:25;;;;;;;;;;;;;;;;;;5109782;28;20318;-66
2022/11/10 13:54:51;;;;;;;;;;;;;;;;;;5109575;28;19916;-66
2022/11/10 13:57:17;;;;;;;;;;;;;;;;;;5109205;28;19908;-67
2022/11/10 13:59:43;;;;;;;;;;;;;;;;;;5108741;28;19926;-66
2022/11/10 14:02:09;;;;;;;;;;;;;;;;;;5109992;28;19908;-67
2022/11/10 14:06:39;;;;;;;;;;;;;;;;;;5090193;27;20300;-67
2022/11/10 14:09:05;;;;;;;;;;;;;;;;;;5090589;28;19995;-67
2022/11/10 14:11:31;;;;;;;;;;;;;;;;;;5090967;28;19954;-68
2022/11/10 14:15:34;;;;;;;;;;;;;;;;;;5091507;27;19916;-68
2022/11/10 14:19:25;;;;;;;;;;;;;;;;;;5112135;27;19916;-68
2022/11/10 14:21:51;;;;;;;;;;;;;;;;;;5111639;28;20007;-68
2022/11/10 14:24:16;;;;;;;;;;;;;;;;;;5111494;28;20382;-68
2022/11/10 14:26:42;;;;;;;;;;;;;;;;;;5109967;28;19912;-68
2022/11/10 14:29:08;;;;;;;;;;;;;;;;;;5111547;28;19908;-68
2022/11/10 14:31:35;;;;;;;;;;;;;;;;;;5111856;28;19963;-68
2022/11/10 14:34:00;;;;;;;;;;;;;;;;;;5109865;28;19908;-68
2022/11/10 14:36:26;;;;;;;;;;;;;;;;;;5111461;28;19952;-68
2022/11/10 14:40:18;;;;;;;;;;;;;;;;;;5091888;27;19922;-67
2022/11/10 14:42:44;;;;;;;;;;;;;;;;;;5089625;28;20015;-67
2022/11/10 14:45:09;;;;;;;;;;;;;;;;;;5091563;28;19915;-67
2022/11/10 14:47:36;;;;;;;;;;;;;;;;;;5091170;28;19909;-67
2022/11/10 14:50:02;;;;;;;;;;;;;;;;;;5091216;28;19909;-67
2022/11/10 14:53:44;;;;;;;;;;;;;;;;;;5112333;27;19923;-67
2022/11/10 14:56:10;;;;;;;;;;;;;;;;;;5111329;28;20003;-67
2022/11/10 14:59:39;;;;;;;;;;;;;;;;;;5112341;27;19918;-66
2022/11/10 15:02:04;;;;;;;;;;;;;;;;;;5111282;28;20011;-67
2022/11/10 15:06:57;;;;;;;;;;;;;;;;;;5111890;27;19916;-67
2022/11/10 15:12:32;;;;;;;;;;;;;;;;;;5091683;28;19916;-67
2022/11/10 15:14:58;;;;;;;;;;;;;;;;;;5091347;28;20352;-67
2022/11/10 15:17:24;;;;;;;;;;;;;;;;;;5090861;28;19912;-67
2022/11/10 15:19:52;;;;;;;;;;;;;;;;;;5091310;28;19922;-67
2022/11/10 15:22:18;;;;;;;;;;;;;;;;;;5090053;28;19962;-67
2022/11/10 15:24:44;;;;;;;;;;;;;;;;;;5090731;28;19909;-67
2022/11/10 15:27:09;;;;;;;;;;;;;;;;;;5091131;28;20373;-67
2022/11/10 15:29:36;;;;;;;;;;;;;;;;;;5091080;28;19931;-68
2022/11/10 15:32:02;;;;;;;;;;;;;;;;;;5090571;28;20381;-68
2022/11/10 15:34:28;;;;;;;;;;;;;;;;;;5090912;28;19909;-68
2022/11/10 15:36:54;;;;;;;;;;;;;;;;;;5090535;28;19909;-68
2022/11/10 15:39:22;;;;;;;;;;;;;;;;;;5091031;28;20387;-68
2022/11/10 15:41:48;;;;;;;;;;;;;;;;;;5089394;28;20368;-68
2022/11/10 15:44:14;;;;;;;;;;;;;;;;;;5090451;28;19922;-68
2022/11/10 15:46:40;;;;;;;;;;;;;;;;;;5090720;28;19938;-68
2022/11/10 15:49:05;;;;;;;;;;;;;;;;;;5089321;28;20388;-68
2022/11/10 15:51:31;;;;;;;;;;;;;;;;;;5090096;28;20314;-68
2022/11/10 15:53:57;;;;;;;;;;;;;;;;;;5090629;28;19908;-68
2022/11/10 15:56:24;;;;;;;;;;;;;;;;;;5090419;28;19991;-68
2022/11/10 15:58:50;;;;;;;;;;;;;;;;;;5090090;28;19913;-68
2022/11/10 16:01:16;;;;;;;;;;;;;;;;;;5089100;28;20398;-68
2022/11/10 16:03:42;;;;;;;;;;;;;;;;;;5090526;28;20006;-68
2022/11/10 16:06:08;;;;;;;;;;;;;;;;;;5089768;28;19915;-68
2022/11/10 16:08:34;;;;;;;;;;;;;;;;;;5088851;28;19909;-68
2022/11/10 16:11:00;;;;;;;;;;;;;;;;;;5097820;28;19920;-68
2022/11/10 16:13:26;;;;;;;;;;;;;;;;;;5110066;28;19998;-68
2022/11/10 16:15:52;;;;;;;;;;;;;;;;;;5110540;28;19912;-68
2022/11/10 16:18:21;;;;;;;;;;;;;;;;;;5110399;28;19908;-68
2022/11/10 16:20:47;;;;;;;;;;;;;;;;;;5109890;28;19911;-68
2022/11/10 16:23:13;;;;;;;;;;;;;;;;;;5100195;28;19915;-67
2022/11/10 16:25:39;;;;;;;;;;;;;;;;;;5096639;28;19908;-67
2022/11/10 16:28:05;;;;;;;;;;;;;;;;;;5096323;28;19908;-68
2022/11/10 16:30:30;;;;;;;;;;;;;;;;;;5096522;28;19959;-69
2022/11/10 16:32:56;;;;;;;;;;;;;;;;;;5095677;28;19923;-68
2022/11/10 16:35:22;;;;;;;;;;;;;;;;;;5094529;28;20364;-68
2022/11/10 16:37:48;;;;;;;;;;;;;;;;;;5094371;28;20306;-68
2022/11/10 16:40:14;;;;;;;;;;;;;;;;;;5094199;28;20284;-68
2022/11/10 16:42:40;;;;;;;;;;;;;;;;;;5094740;28;19908;-68
2022/11/10 16:45:06;;;;;;;;;;;;;;;;;;5094621;28;19915;-68
2022/11/10 16:47:32;;;;;;;;;;;;;;;;;;5094165;28;19912;-68
2022/11/10 16:49:58;;;;;;;;;;;;;;;;;;5078150;28;20003;-68
2022/11/10 16:52:25;;;;;;;;;;;;;;;;;;5095159;28;19917;-68
2022/11/10 16:54:51;;;;;;;;;;;;;;;;;;5094414;28;19908;-68
2022/11/10 16:57:19;;;;;;;;;;;;;;;;;;5095409;28;20420;-68
2022/11/10 16:59:45;;;;;;;;;;;;;;;;;;5095397;28;20322;-68
2022/11/10 17:02:10;;;;;;;;;;;;;;;;;;5095312;28;19916;-68
2022/11/10 17:04:36;;;;;;;;;;;;;;;;;;5077222;28;20299;-68
2022/11/10 17:07:02;;;;;;;;;;;;;;;;;;5077789;28;20315;-68
2022/11/10 17:09:28;;;;;;;;;;;;;;;;;;5095430;28;20279;-68
2022/11/10 17:11:54;;;;;;;;;;;;;;;;;;5095555;28;20002;-68
2022/11/10 17:14:20;;;;;;;;;;;;;;;;;;5095853;28;19915;-68
2022/11/10 17:16:46;;;;;;;;;;;;;;;;;;5095276;28;20287;-68
2022/11/10 17:19:12;;;;;;;;;;;;;;;;;;5095843;28;19912;-68
2022/11/10 17:21:38;;;;;;;;;;;;;;;;;;5095650;28;19908;-69
2022/11/10 17:24:04;;;;;;;;;;;;;;;;;;5095026;28;19953;-68
2022/11/10 17:26:30;;;;;;;;;;;;;;;;;;5095559;28;19908;-67
2022/11/10 17:28:56;;;;;;;;;;;;;;;;;;5095534;28;20322;-68
2022/11/10 17:31:22;;;;;;;;;;;;;;;;;;5094938;28;19965;-68